sensor_id;sensor_type;location;lat;lon;timestamp;temperature;humidity
7427;DHT22;3755;59.316;18.092;2023-08-20T00:01:09;16.60;99.90
7427;DHT22;3755;59.316;18.092;2023-08-20T00:03:41;16.60;99.90
7427;DHT22;3755;59.316;18.092;2023-08-20T00:06:10;16.60;99.90
7427;DHT22;3755;59.316;18.092;2023-08-20T00:08:37;16.60;99.90
7427;DHT22;3755;59.316;18.092;2023-08-20T00:11:05;16.60;99.90
7427;DHT22;3755;59.316;18.092;2023-08-20T00:13:32;16.50;99.90
7427;DHT22;3755;59.316;18.092;2023-08-20T00:15:59;16.50;99.90
7427;DHT22;3755;59.316;18.092;2023-08-20T00:18:27;16.40;99.90
7427;DHT22;3755;59.316;18.092;2023-08-20T00:20:56;16.40;99.90
7427;DHT22;3755;59.316;18.092;2023-08-20T00:23:24;16.40;99.90
7427;DHT22;3755;59.316;18.092;2023-08-20T00:25:52;16.30;99.90
7427;DHT22;3755;59.316;18.092;2023-08-20T00:28:20;16.40;99.90
7427;DHT22;3755;59.316;18.092;2023-08-20T00:30:47;16.30;99.90
7427;DHT22;3755;59.316;18.092;2023-08-20T00:33:14;16.30;99.90
7427;DHT22;3755;59.316;18.092;2023-08-20T00:35:41;16.30;99.90
7427;DHT22;3755;59.316;18.092;2023-08-20T00:38:10;16.30;99.90
7427;DHT22;3755;59.316;18.092;2023-08-20T00:40:37;16.40;99.90
7427;DHT22;3755;59.316;18.092;2023-08-20T00:43:04;16.40;99.90
7427;DHT22;3755;59.316;18.092;2023-08-20T00:45:32;16.30;99.90
7427;DHT22;3755;59.316;18.092;2023-08-20T00:47:59;16.30;99.90
7427;DHT22;3755;59.316;18.092;2023-08-20T00:50:26;16.40;99.90
7427;DHT22;3755;59.316;18.092;2023-08-20T00:52:53;16.30;99.90
7427;DHT22;3755;59.316;18.092;2023-08-20T00:55:22;16.40;99.90
7427;DHT22;3755;59.316;18.092;2023-08-20T00:57:50;16.40;99.90
7427;DHT22;3755;59.316;18.092;2023-08-20T01:00:17;16.40;99.90
7427;DHT22;3755;59.316;18.092;2023-08-20T01:02:44;16.40;99.90
7427;DHT22;3755;59.316;18.092;2023-08-20T01:05:12;16.40;99.90
7427;DHT22;3755;59.316;18.092;2023-08-20T01:07:54;16.40;99.90
7427;DHT22;3755;59.316;18.092;2023-08-20T01:10:33;16.40;99.90
7427;DHT22;3755;59.316;18.092;2023-08-20T01:13:02;16.40;99.90
7427;DHT22;3755;59.316;18.092;2023-08-20T01:15:30;16.30;99.90
7427;DHT22;3755;59.316;18.092;2023-08-20T01:17:57;16.30;99.90
7427;DHT22;3755;59.316;18.092;2023-08-20T01:20:27;16.30;99.90
7427;DHT22;3755;59.316;18.092;2023-08-20T01:26:22;16.30;99.90
7427;DHT22;3755;59.316;18.092;2023-08-20T01:28:51;16.20;99.90
7427;DHT22;3755;59.316;18.092;2023-08-20T01:31:20;16.20;99.90
7427;DHT22;3755;59.316;18.092;2023-08-20T01:33:47;16.20;99.90
7427;DHT22;3755;59.316;18.092;2023-08-20T01:36:14;16.20;99.90
7427;DHT22;3755;59.316;18.092;2023-08-20T01:38:41;16.20;99.90
7427;DHT22;3755;59.316;18.092;2023-08-20T01:41:08;16.20;99.90
7427;DHT22;3755;59.316;18.092;2023-08-20T01:43:35;16.20;99.90
7427;DHT22;3755;59.316;18.092;2023-08-20T01:46:04;16.20;99.90
7427;DHT22;3755;59.316;18.092;2023-08-20T01:48:31;16.10;99.90
7427;DHT22;3755;59.316;18.092;2023-08-20T01:50:58;16.10;99.90
7427;DHT22;3755;59.316;18.092;2023-08-20T01:53:25;16.10;99.90
7427;DHT22;3755;59.316;18.092;2023-08-20T01:55:52;16.00;99.90
7427;DHT22;3755;59.316;18.092;2023-08-20T01:58:19;16.00;99.90
7427;DHT22;3755;59.316;18.092;2023-08-20T02:00:46;16.00;99.90
7427;DHT22;3755;59.316;18.092;2023-08-20T02:03:15;16.00;99.90
7427;DHT22;3755;59.316;18.092;2023-08-20T02:05:42;16.00;99.90
7427;DHT22;3755;59.316;18.092;2023-08-20T02:08:09;16.00;99.90
7427;DHT22;3755;59.316;18.092;2023-08-20T02:10:37;16.00;99.90
7427;DHT22;3755;59.316;18.092;2023-08-20T02:13:04;16.00;99.90
7427;DHT22;3755;59.316;18.092;2023-08-20T02:15:32;16.00;99.90
7427;DHT22;3755;59.316;18.092;2023-08-20T02:17:59;16.00;99.90
7427;DHT22;3755;59.316;18.092;2023-08-20T02:20:28;15.90;99.90
7427;DHT22;3755;59.316;18.092;2023-08-20T02:22:55;15.90;99.90
7427;DHT22;3755;59.316;18.092;2023-08-20T02:25:23;15.80;99.90
7427;DHT22;3755;59.316;18.092;2023-08-20T02:27:50;15.80;99.90
7427;DHT22;3755;59.316;18.092;2023-08-20T02:30:17;15.80;99.90
7427;DHT22;3755;59.316;18.092;2023-08-20T02:32:44;15.80;99.90
7427;DHT22;3755;59.316;18.092;2023-08-20T02:35:11;15.70;99.90
7427;DHT22;3755;59.316;18.092;2023-08-20T02:37:42;15.70;99.90
7427;DHT22;3755;59.316;18.092;2023-08-20T02:40:10;15.70;99.90
7427;DHT22;3755;59.316;18.092;2023-08-20T02:42:39;15.70;99.90
7427;DHT22;3755;59.316;18.092;2023-08-20T02:45:07;15.70;99.90
7427;DHT22;3755;59.316;18.092;2023-08-20T02:47:34;15.80;99.90
7427;DHT22;3755;59.316;18.092;2023-08-20T02:50:01;15.80;99.90
7427;DHT22;3755;59.316;18.092;2023-08-20T02:52:30;15.80;99.90
7427;DHT22;3755;59.316;18.092;2023-08-20T02:54:58;15.80;99.90
7427;DHT22;3755;59.316;18.092;2023-08-20T02:57:25;15.90;99.90
7427;DHT22;3755;59.316;18.092;2023-08-20T02:59:52;15.80;99.90
7427;DHT22;3755;59.316;18.092;2023-08-20T03:02:19;15.90;99.90
7427;DHT22;3755;59.316;18.092;2023-08-20T03:04:46;15.90;99.90
7427;DHT22;3755;59.316;18.092;2023-08-20T03:07:14;15.90;99.90
7427;DHT22;3755;59.316;18.092;2023-08-20T03:09:41;15.90;99.90
7427;DHT22;3755;59.316;18.092;2023-08-20T03:12:10;15.90;99.90
7427;DHT22;3755;59.316;18.092;2023-08-20T03:14:37;15.90;99.90
7427;DHT22;3755;59.316;18.092;2023-08-20T03:17:04;16.00;99.90
7427;DHT22;3755;59.316;18.092;2023-08-20T03:19:33;16.00;99.90
7427;DHT22;3755;59.316;18.092;2023-08-20T03:22:01;16.00;99.90
7427;DHT22;3755;59.316;18.092;2023-08-20T03:24:28;15.90;99.90
7427;DHT22;3755;59.316;18.092;2023-08-20T03:26:55;15.90;99.90
7427;DHT22;3755;59.316;18.092;2023-08-20T03:29:23;16.00;99.90
7427;DHT22;3755;59.316;18.092;2023-08-20T03:31:51;16.00;99.90
7427;DHT22;3755;59.316;18.092;2023-08-20T03:34:17;16.00;99.90
7427;DHT22;3755;59.316;18.092;2023-08-20T03:36:44;16.00;99.90
7427;DHT22;3755;59.316;18.092;2023-08-20T03:39:11;16.00;99.90
7427;DHT22;3755;59.316;18.092;2023-08-20T03:41:39;16.00;99.90
7427;DHT22;3755;59.316;18.092;2023-08-20T03:44:06;16.10;99.90
7427;DHT22;3755;59.316;18.092;2023-08-20T03:46:35;16.10;99.90
7427;DHT22;3755;59.316;18.092;2023-08-20T03:49:02;16.00;99.90
7427;DHT22;3755;59.316;18.092;2023-08-20T03:51:29;16.10;99.90
7427;DHT22;3755;59.316;18.092;2023-08-20T03:53:56;16.00;99.90
7427;DHT22;3755;59.316;18.092;2023-08-20T03:56:23;16.00;99.90
7427;DHT22;3755;59.316;18.092;2023-08-20T03:58:50;16.10;99.90
7427;DHT22;3755;59.316;18.092;2023-08-20T04:01:18;16.10;99.90
7427;DHT22;3755;59.316;18.092;2023-08-20T04:03:47;16.00;99.90
7427;DHT22;3755;59.316;18.092;2023-08-20T04:06:14;16.00;99.90
7427;DHT22;3755;59.316;18.092;2023-08-20T04:08:41;16.10;99.90
7427;DHT22;3755;59.316;18.092;2023-08-20T04:11:09;16.00;99.90
7427;DHT22;3755;59.316;18.092;2023-08-20T04:13:37;16.00;99.90
7427;DHT22;3755;59.316;18.092;2023-08-20T04:16:05;16.00;99.90
7427;DHT22;3755;59.316;18.092;2023-08-20T04:18:32;16.00;99.90
7427;DHT22;3755;59.316;18.092;2023-08-20T04:21:01;16.00;99.90
7427;DHT22;3755;59.316;18.092;2023-08-20T04:23:28;16.00;99.90
7427;DHT22;3755;59.316;18.092;2023-08-20T04:25:55;16.00;99.90
7427;DHT22;3755;59.316;18.092;2023-08-20T04:28:22;16.10;99.90
7427;DHT22;3755;59.316;18.092;2023-08-20T04:30:52;16.10;99.90
7427;DHT22;3755;59.316;18.092;2023-08-20T04:33:19;16.10;99.90
7427;DHT22;3755;59.316;18.092;2023-08-20T04:35:48;16.10;99.90
7427;DHT22;3755;59.316;18.092;2023-08-20T04:38:17;16.10;99.90
7427;DHT22;3755;59.316;18.092;2023-08-20T04:40:46;16.10;99.90
7427;DHT22;3755;59.316;18.092;2023-08-20T04:43:13;16.10;99.90
7427;DHT22;3755;59.316;18.092;2023-08-20T04:45:40;16.10;99.90
7427;DHT22;3755;59.316;18.092;2023-08-20T04:48:08;16.10;99.90
7427;DHT22;3755;59.316;18.092;2023-08-20T04:50:35;16.10;99.90
7427;DHT22;3755;59.316;18.092;2023-08-20T04:53:02;16.10;99.90
7427;DHT22;3755;59.316;18.092;2023-08-20T04:55:31;16.10;99.90
7427;DHT22;3755;59.316;18.092;2023-08-20T04:57:58;16.20;99.90
7427;DHT22;3755;59.316;18.092;2023-08-20T05:00:25;16.20;99.90
7427;DHT22;3755;59.316;18.092;2023-08-20T05:02:54;16.20;99.90
7427;DHT22;3755;59.316;18.092;2023-08-20T05:05:22;16.20;99.90
7427;DHT22;3755;59.316;18.092;2023-08-20T05:07:49;16.30;99.90
7427;DHT22;3755;59.316;18.092;2023-08-20T05:10:16;16.20;99.90
7427;DHT22;3755;59.316;18.092;2023-08-20T05:12:45;16.30;99.90
7427;DHT22;3755;59.316;18.092;2023-08-20T05:15:12;16.30;99.90
7427;DHT22;3755;59.316;18.092;2023-08-20T05:17:40;16.30;99.90
7427;DHT22;3755;59.316;18.092;2023-08-20T05:20:07;16.30;99.90
7427;DHT22;3755;59.316;18.092;2023-08-20T05:22:36;16.30;99.90
7427;DHT22;3755;59.316;18.092;2023-08-20T05:25:03;16.30;99.90
7427;DHT22;3755;59.316;18.092;2023-08-20T05:27:30;16.40;99.90
7427;DHT22;3755;59.316;18.092;2023-08-20T05:29:59;16.40;99.90
7427;DHT22;3755;59.316;18.092;2023-08-20T05:32:26;16.40;99.90
7427;DHT22;3755;59.316;18.092;2023-08-20T05:34:53;16.30;99.90
7427;DHT22;3755;59.316;18.092;2023-08-20T05:37:20;16.30;99.90
7427;DHT22;3755;59.316;18.092;2023-08-20T05:39:47;16.40;99.90
7427;DHT22;3755;59.316;18.092;2023-08-20T05:42:14;16.40;99.90
7427;DHT22;3755;59.316;18.092;2023-08-20T05:44:42;16.40;99.90
7427;DHT22;3755;59.316;18.092;2023-08-20T05:47:11;16.40;99.90
7427;DHT22;3755;59.316;18.092;2023-08-20T05:49:38;16.40;99.90
7427;DHT22;3755;59.316;18.092;2023-08-20T05:52:05;16.50;99.90
7427;DHT22;3755;59.316;18.092;2023-08-20T05:54:32;16.50;99.90
7427;DHT22;3755;59.316;18.092;2023-08-20T05:56:59;16.40;99.90
7427;DHT22;3755;59.316;18.092;2023-08-20T05:59:27;16.50;99.90
7427;DHT22;3755;59.316;18.092;2023-08-20T06:01:54;16.50;99.90
7427;DHT22;3755;59.316;18.092;2023-08-20T06:04:23;16.60;99.90
7427;DHT22;3755;59.316;18.092;2023-08-20T06:06:50;16.70;99.90
7427;DHT22;3755;59.316;18.092;2023-08-20T06:09:17;16.70;99.90
7427;DHT22;3755;59.316;18.092;2023-08-20T06:11:44;16.70;99.90
7427;DHT22;3755;59.316;18.092;2023-08-20T06:14:12;16.80;99.90
7427;DHT22;3755;59.316;18.092;2023-08-20T06:16:39;16.80;99.90
7427;DHT22;3755;59.316;18.092;2023-08-20T06:19:06;16.90;99.90
7427;DHT22;3755;59.316;18.092;2023-08-20T06:21:34;16.90;99.90
7427;DHT22;3755;59.316;18.092;2023-08-20T06:24:02;16.90;99.90
7427;DHT22;3755;59.316;18.092;2023-08-20T06:26:29;16.90;99.90
7427;DHT22;3755;59.316;18.092;2023-08-20T06:28:56;17.00;99.90
7427;DHT22;3755;59.316;18.092;2023-08-20T06:31:23;17.00;99.90
7427;DHT22;3755;59.316;18.092;2023-08-20T06:33:51;17.10;99.90
7427;DHT22;3755;59.316;18.092;2023-08-20T06:36:18;17.10;99.90
7427;DHT22;3755;59.316;18.092;2023-08-20T06:38:46;17.20;99.90
7427;DHT22;3755;59.316;18.092;2023-08-20T06:41:13;17.20;99.90
7427;DHT22;3755;59.316;18.092;2023-08-20T06:43:40;17.30;99.90
7427;DHT22;3755;59.316;18.092;2023-08-20T06:46:07;17.20;99.90
7427;DHT22;3755;59.316;18.092;2023-08-20T06:48:35;17.20;99.90
7427;DHT22;3755;59.316;18.092;2023-08-20T06:51:09;17.30;99.90
7427;DHT22;3755;59.316;18.092;2023-08-20T06:53:37;17.20;99.90
7427;DHT22;3755;59.316;18.092;2023-08-20T06:56:06;17.30;99.90
7427;DHT22;3755;59.316;18.092;2023-08-20T06:58:34;17.20;99.90
7427;DHT22;3755;59.316;18.092;2023-08-20T07:01:01;17.20;99.90
7427;DHT22;3755;59.316;18.092;2023-08-20T07:03:34;17.30;99.90
7427;DHT22;3755;59.316;18.092;2023-08-20T07:06:01;17.40;99.90
7427;DHT22;3755;59.316;18.092;2023-08-20T07:08:28;17.50;99.90
7427;DHT22;3755;59.316;18.092;2023-08-20T07:10:55;17.60;99.90
7427;DHT22;3755;59.316;18.092;2023-08-20T07:13:24;17.70;99.90
7427;DHT22;3755;59.316;18.092;2023-08-20T07:15:51;17.70;99.90
7427;DHT22;3755;59.316;18.092;2023-08-20T07:18:18;17.70;99.90
7427;DHT22;3755;59.316;18.092;2023-08-20T07:20:46;17.50;99.90
7427;DHT22;3755;59.316;18.092;2023-08-20T07:23:13;17.30;99.90
7427;DHT22;3755;59.316;18.092;2023-08-20T07:25:41;17.30;99.90
7427;DHT22;3755;59.316;18.092;2023-08-20T07:28:08;17.30;99.90
7427;DHT22;3755;59.316;18.092;2023-08-20T07:30:37;17.20;99.90
7427;DHT22;3755;59.316;18.092;2023-08-20T07:33:05;17.10;99.90
7427;DHT22;3755;59.316;18.092;2023-08-20T07:35:32;17.10;99.90
7427;DHT22;3755;59.316;18.092;2023-08-20T07:38:01;17.20;99.90
7427;DHT22;3755;59.316;18.092;2023-08-20T07:40:28;17.20;99.90
7427;DHT22;3755;59.316;18.092;2023-08-20T07:42:55;17.30;99.90
7427;DHT22;3755;59.316;18.092;2023-08-20T07:45:23;17.30;99.90
7427;DHT22;3755;59.316;18.092;2023-08-20T07:47:51;17.30;99.90
7427;DHT22;3755;59.316;18.092;2023-08-20T07:50:18;17.30;99.90
7427;DHT22;3755;59.316;18.092;2023-08-20T07:52:46;17.30;99.90
7427;DHT22;3755;59.316;18.092;2023-08-20T07:55:13;17.30;99.90
7427;DHT22;3755;59.316;18.092;2023-08-20T07:57:40;17.40;99.90
7427;DHT22;3755;59.316;18.092;2023-08-20T08:00:08;17.30;99.90
7427;DHT22;3755;59.316;18.092;2023-08-20T08:02:35;17.40;99.90
7427;DHT22;3755;59.316;18.092;2023-08-20T08:05:04;17.30;99.90
7427;DHT22;3755;59.316;18.092;2023-08-20T08:07:32;17.40;99.90
7427;DHT22;3755;59.316;18.092;2023-08-20T08:09:59;17.50;99.90
7427;DHT22;3755;59.316;18.092;2023-08-20T08:12:26;17.60;99.90
7427;DHT22;3755;59.316;18.092;2023-08-20T08:14:53;17.70;99.90
7427;DHT22;3755;59.316;18.092;2023-08-20T08:17:20;17.80;99.90
7427;DHT22;3755;59.316;18.092;2023-08-20T08:19:48;17.90;99.90
7427;DHT22;3755;59.316;18.092;2023-08-20T08:22:16;17.90;99.90
7427;DHT22;3755;59.316;18.092;2023-08-20T08:24:43;17.90;99.90
7427;DHT22;3755;59.316;18.092;2023-08-20T08:27:10;17.80;99.90
7427;DHT22;3755;59.316;18.092;2023-08-20T08:29:37;17.80;99.90
7427;DHT22;3755;59.316;18.092;2023-08-20T08:32:05;17.80;99.90
7427;DHT22;3755;59.316;18.092;2023-08-20T08:34:32;17.80;99.90
7427;DHT22;3755;59.316;18.092;2023-08-20T08:36:59;17.80;99.90
7427;DHT22;3755;59.316;18.092;2023-08-20T08:39:27;17.70;99.90
7427;DHT22;3755;59.316;18.092;2023-08-20T08:42:00;17.80;99.90
7427;DHT22;3755;59.316;18.092;2023-08-20T08:44:28;17.80;99.90
7427;DHT22;3755;59.316;18.092;2023-08-20T08:46:55;18.00;99.90
7427;DHT22;3755;59.316;18.092;2023-08-20T08:49:22;18.00;99.90
7427;DHT22;3755;59.316;18.092;2023-08-20T08:51:51;18.00;99.90
7427;DHT22;3755;59.316;18.092;2023-08-20T08:54:18;18.10;99.90
7427;DHT22;3755;59.316;18.092;2023-08-20T08:56:48;18.10;99.90
7427;DHT22;3755;59.316;18.092;2023-08-20T08:59:15;18.00;99.90
7427;DHT22;3755;59.316;18.092;2023-08-20T09:01:42;18.10;99.90
7427;DHT22;3755;59.316;18.092;2023-08-20T09:04:09;18.10;99.90
7427;DHT22;3755;59.316;18.092;2023-08-20T09:06:46;18.20;99.90
7427;DHT22;3755;59.316;18.092;2023-08-20T09:09:13;18.30;99.90
7427;DHT22;3755;59.316;18.092;2023-08-20T09:11:40;18.40;99.90
7427;DHT22;3755;59.316;18.092;2023-08-20T09:14:21;18.40;99.90
7427;DHT22;3755;59.316;18.092;2023-08-20T09:16:54;18.40;99.90
7427;DHT22;3755;59.316;18.092;2023-08-20T09:19:22;18.50;99.90
7427;DHT22;3755;59.316;18.092;2023-08-20T09:21:49;18.60;99.90
7427;DHT22;3755;59.316;18.092;2023-08-20T09:24:26;18.80;99.90
7427;DHT22;3755;59.316;18.092;2023-08-20T09:26:57;18.90;99.90
7427;DHT22;3755;59.316;18.092;2023-08-20T09:29:26;19.10;99.90
7427;DHT22;3755;59.316;18.092;2023-08-20T09:32:00;19.10;99.90
7427;DHT22;3755;59.316;18.092;2023-08-20T09:34:36;19.20;99.90
7427;DHT22;3755;59.316;18.092;2023-08-20T09:37:05;19.30;99.90
7427;DHT22;3755;59.316;18.092;2023-08-20T09:39:34;19.30;99.90
7427;DHT22;3755;59.316;18.092;2023-08-20T09:42:02;19.40;99.90
7427;DHT22;3755;59.316;18.092;2023-08-20T09:44:33;19.50;99.90
7427;DHT22;3755;59.316;18.092;2023-08-20T09:47:03;19.60;99.90
7427;DHT22;3755;59.316;18.092;2023-08-20T09:49:33;19.50;99.90
7427;DHT22;3755;59.316;18.092;2023-08-20T09:52:04;19.60;99.90
7427;DHT22;3755;59.316;18.092;2023-08-20T09:54:38;19.40;99.90
7427;DHT22;3755;59.316;18.092;2023-08-20T09:57:11;19.40;99.90
7427;DHT22;3755;59.316;18.092;2023-08-20T09:59:41;19.30;99.90
7427;DHT22;3755;59.316;18.092;2023-08-20T10:02:11;19.40;99.90
7427;DHT22;3755;59.316;18.092;2023-08-20T10:04:39;19.30;99.90
7427;DHT22;3755;59.316;18.092;2023-08-20T10:07:06;19.40;99.90
7427;DHT22;3755;59.316;18.092;2023-08-20T10:09:34;19.40;99.90
7427;DHT22;3755;59.316;18.092;2023-08-20T10:12:01;19.60;99.90
7427;DHT22;3755;59.316;18.092;2023-08-20T10:14:29;19.60;99.90
7427;DHT22;3755;59.316;18.092;2023-08-20T10:16:57;19.60;99.90
7427;DHT22;3755;59.316;18.092;2023-08-20T10:19:24;19.60;99.90
7427;DHT22;3755;59.316;18.092;2023-08-20T10:21:52;19.70;99.90
7427;DHT22;3755;59.316;18.092;2023-08-20T10:24:20;19.70;99.90
7427;DHT22;3755;59.316;18.092;2023-08-20T10:26:47;19.80;99.90
7427;DHT22;3755;59.316;18.092;2023-08-20T10:29:34;19.80;99.90
7427;DHT22;3755;59.316;18.092;2023-08-20T10:32:05;19.80;99.90
7427;DHT22;3755;59.316;18.092;2023-08-20T10:34:33;19.80;99.90
7427;DHT22;3755;59.316;18.092;2023-08-20T10:37:02;19.80;99.90
7427;DHT22;3755;59.316;18.092;2023-08-20T10:39:30;19.70;99.90
7427;DHT22;3755;59.316;18.092;2023-08-20T10:42:22;19.70;99.90
7427;DHT22;3755;59.316;18.092;2023-08-20T10:45:01;19.60;99.90
7427;DHT22;3755;59.316;18.092;2023-08-20T10:47:44;19.70;99.90
7427;DHT22;3755;59.316;18.092;2023-08-20T10:50:15;19.60;99.90
7427;DHT22;3755;59.316;18.092;2023-08-20T10:52:48;19.50;99.90
7427;DHT22;3755;59.316;18.092;2023-08-20T10:55:16;19.40;99.90
7427;DHT22;3755;59.316;18.092;2023-08-20T10:57:54;19.40;99.90
7427;DHT22;3755;59.316;18.092;2023-08-20T11:00:22;19.40;99.90
7427;DHT22;3755;59.316;18.092;2023-08-20T11:02:52;19.50;99.90
7427;DHT22;3755;59.316;18.092;2023-08-20T11:05:20;19.60;99.90
7427;DHT22;3755;59.316;18.092;2023-08-20T11:07:48;19.60;99.90
7427;DHT22;3755;59.316;18.092;2023-08-20T11:10:16;19.60;99.90
7427;DHT22;3755;59.316;18.092;2023-08-20T11:12:45;19.60;99.90
7427;DHT22;3755;59.316;18.092;2023-08-20T11:15:13;19.70;99.90
7427;DHT22;3755;59.316;18.092;2023-08-20T11:17:43;19.70;99.90
7427;DHT22;3755;59.316;18.092;2023-08-20T11:20:14;19.80;99.90
7427;DHT22;3755;59.316;18.092;2023-08-20T11:22:41;19.80;99.90
7427;DHT22;3755;59.316;18.092;2023-08-20T11:25:11;19.80;99.90
7427;DHT22;3755;59.316;18.092;2023-08-20T11:27:43;19.80;99.90
7427;DHT22;3755;59.316;18.092;2023-08-20T11:30:11;19.80;99.90
7427;DHT22;3755;59.316;18.092;2023-08-20T11:32:39;19.80;99.90
7427;DHT22;3755;59.316;18.092;2023-08-20T11:35:07;19.80;99.90
7427;DHT22;3755;59.316;18.092;2023-08-20T11:37:36;19.80;99.90
7427;DHT22;3755;59.316;18.092;2023-08-20T11:40:07;19.90;99.90
7427;DHT22;3755;59.316;18.092;2023-08-20T11:42:35;20.00;99.90
7427;DHT22;3755;59.316;18.092;2023-08-20T11:45:02;20.00;99.90
7427;DHT22;3755;59.316;18.092;2023-08-20T11:47:30;20.00;99.90
7427;DHT22;3755;59.316;18.092;2023-08-20T11:50:05;20.00;99.90
7427;DHT22;3755;59.316;18.092;2023-08-20T11:52:33;19.90;99.90
7427;DHT22;3755;59.316;18.092;2023-08-20T11:55:02;19.90;99.90
7427;DHT22;3755;59.316;18.092;2023-08-20T11:57:30;20.10;99.90
7427;DHT22;3755;59.316;18.092;2023-08-20T12:00:00;20.20;99.90
7427;DHT22;3755;59.316;18.092;2023-08-20T12:02:30;20.10;99.90
7427;DHT22;3755;59.316;18.092;2023-08-20T12:04:57;20.20;99.90
7427;DHT22;3755;59.316;18.092;2023-08-20T12:07:26;20.20;99.90
7427;DHT22;3755;59.316;18.092;2023-08-20T12:09:53;20.30;99.90
7427;DHT22;3755;59.316;18.092;2023-08-20T12:12:22;20.20;99.90
7427;DHT22;3755;59.316;18.092;2023-08-20T12:14:49;20.10;99.90
7427;DHT22;3755;59.316;18.092;2023-08-20T12:17:17;20.30;99.90
7427;DHT22;3755;59.316;18.092;2023-08-20T12:19:45;20.30;99.90
7427;DHT22;3755;59.316;18.092;2023-08-20T12:22:12;20.20;99.90
7427;DHT22;3755;59.316;18.092;2023-08-20T12:24:39;20.10;99.90
7427;DHT22;3755;59.316;18.092;2023-08-20T12:27:06;19.90;99.90
7427;DHT22;3755;59.316;18.092;2023-08-20T12:29:35;19.80;99.90
7427;DHT22;3755;59.316;18.092;2023-08-20T12:32:02;19.70;99.90
7427;DHT22;3755;59.316;18.092;2023-08-20T12:34:32;19.70;99.90
7427;DHT22;3755;59.316;18.092;2023-08-20T12:37:00;19.50;99.90
7427;DHT22;3755;59.316;18.092;2023-08-20T12:39:27;19.40;99.90
7427;DHT22;3755;59.316;18.092;2023-08-20T12:41:55;19.50;99.90
7427;DHT22;3755;59.316;18.092;2023-08-20T12:44:22;19.50;99.90
7427;DHT22;3755;59.316;18.092;2023-08-20T12:46:50;19.50;99.90
7427;DHT22;3755;59.316;18.092;2023-08-20T12:49:18;19.40;99.90
7427;DHT22;3755;59.316;18.092;2023-08-20T12:51:45;19.30;99.90
7427;DHT22;3755;59.316;18.092;2023-08-20T12:54:12;19.20;99.90
7427;DHT22;3755;59.316;18.092;2023-08-20T12:56:39;19.30;99.90
7427;DHT22;3755;59.316;18.092;2023-08-20T12:59:06;19.20;99.90
7427;DHT22;3755;59.316;18.092;2023-08-20T13:01:33;19.20;99.90
7427;DHT22;3755;59.316;18.092;2023-08-20T13:04:03;19.10;99.90
7427;DHT22;3755;59.316;18.092;2023-08-20T13:06:31;19.10;99.90
7427;DHT22;3755;59.316;18.092;2023-08-20T13:08:58;19.20;99.90
7427;DHT22;3755;59.316;18.092;2023-08-20T13:11:27;19.20;99.90
7427;DHT22;3755;59.316;18.092;2023-08-20T13:13:56;19.10;99.90
7427;DHT22;3755;59.316;18.092;2023-08-20T13:16:24;19.20;99.90
7427;DHT22;3755;59.316;18.092;2023-08-20T13:18:52;19.20;99.90
7427;DHT22;3755;59.316;18.092;2023-08-20T13:21:20;19.30;99.90
7427;DHT22;3755;59.316;18.092;2023-08-20T13:23:48;19.40;99.90
7427;DHT22;3755;59.316;18.092;2023-08-20T13:26:15;19.40;99.90
7427;DHT22;3755;59.316;18.092;2023-08-20T13:28:43;19.40;99.90
7427;DHT22;3755;59.316;18.092;2023-08-20T13:31:10;19.40;99.90
7427;DHT22;3755;59.316;18.092;2023-08-20T13:33:38;19.40;99.90
7427;DHT22;3755;59.316;18.092;2023-08-20T13:36:06;19.20;99.90
7427;DHT22;3755;59.316;18.092;2023-08-20T13:38:35;19.10;99.90
7427;DHT22;3755;59.316;18.092;2023-08-20T13:41:02;19.00;99.90
7427;DHT22;3755;59.316;18.092;2023-08-20T13:43:29;18.90;99.90
7427;DHT22;3755;59.316;18.092;2023-08-20T13:45:56;18.90;99.90
7427;DHT22;3755;59.316;18.092;2023-08-20T13:48:23;18.80;99.90
7427;DHT22;3755;59.316;18.092;2023-08-20T13:50:51;18.70;99.90
7427;DHT22;3755;59.316;18.092;2023-08-20T13:53:18;18.60;99.90
7427;DHT22;3755;59.316;18.092;2023-08-20T13:55:46;18.60;99.90
7427;DHT22;3755;59.316;18.092;2023-08-20T13:58:13;18.50;99.90
7427;DHT22;3755;59.316;18.092;2023-08-20T14:00:41;18.40;99.90
7427;DHT22;3755;59.316;18.092;2023-08-20T14:03:09;18.20;99.90
7427;DHT22;3755;59.316;18.092;2023-08-20T14:05:36;18.10;99.90
7427;DHT22;3755;59.316;18.092;2023-08-20T14:08:04;18.10;99.90
7427;DHT22;3755;59.316;18.092;2023-08-20T14:10:31;18.20;99.90
7427;DHT22;3755;59.316;18.092;2023-08-20T14:13:00;18.30;99.90
7427;DHT22;3755;59.316;18.092;2023-08-20T14:15:27;18.30;99.90
7427;DHT22;3755;59.316;18.092;2023-08-20T14:17:54;18.20;99.90
7427;DHT22;3755;59.316;18.092;2023-08-20T14:20:21;18.10;99.90
7427;DHT22;3755;59.316;18.092;2023-08-20T14:22:49;18.20;99.90
7427;DHT22;3755;59.316;18.092;2023-08-20T14:25:16;18.20;99.90
7427;DHT22;3755;59.316;18.092;2023-08-20T14:27:43;18.20;99.90
7427;DHT22;3755;59.316;18.092;2023-08-20T14:30:12;18.20;99.90
7427;DHT22;3755;59.316;18.092;2023-08-20T14:32:39;18.20;99.90
7427;DHT22;3755;59.316;18.092;2023-08-20T14:35:08;18.20;99.90
7427;DHT22;3755;59.316;18.092;2023-08-20T14:37:35;18.20;99.90
7427;DHT22;3755;59.316;18.092;2023-08-20T14:40:03;18.30;99.90
7427;DHT22;3755;59.316;18.092;2023-08-20T14:42:32;18.20;99.90
7427;DHT22;3755;59.316;18.092;2023-08-20T14:45:00;18.20;99.90
7427;DHT22;3755;59.316;18.092;2023-08-20T14:47:30;18.20;99.90
7427;DHT22;3755;59.316;18.092;2023-08-20T14:49:57;18.20;99.90
7427;DHT22;3755;59.316;18.092;2023-08-20T14:52:24;18.30;99.90
7427;DHT22;3755;59.316;18.092;2023-08-20T14:54:51;18.20;99.90
7427;DHT22;3755;59.316;18.092;2023-08-20T14:57:19;18.10;99.90
7427;DHT22;3755;59.316;18.092;2023-08-20T14:59:46;18.10;99.90
7427;DHT22;3755;59.316;18.092;2023-08-20T15:02:13;18.10;99.90
7427;DHT22;3755;59.316;18.092;2023-08-20T15:04:41;18.20;99.90
7427;DHT22;3755;59.316;18.092;2023-08-20T15:07:08;18.20;99.90
7427;DHT22;3755;59.316;18.092;2023-08-20T15:09:36;18.10;99.90
7427;DHT22;3755;59.316;18.092;2023-08-20T15:12:03;18.10;99.90
7427;DHT22;3755;59.316;18.092;2023-08-20T15:14:31;18.00;99.90
7427;DHT22;3755;59.316;18.092;2023-08-20T15:16:58;17.90;99.90
7427;DHT22;3755;59.316;18.092;2023-08-20T15:19:25;17.80;99.90
7427;DHT22;3755;59.316;18.092;2023-08-20T15:21:53;17.80;99.90
7427;DHT22;3755;59.316;18.092;2023-08-20T15:24:20;17.80;99.90
7427;DHT22;3755;59.316;18.092;2023-08-20T15:26:48;17.90;99.90
7427;DHT22;3755;59.316;18.092;2023-08-20T15:29:15;17.90;99.90
7427;DHT22;3755;59.316;18.092;2023-08-20T15:31:42;17.90;99.90
7427;DHT22;3755;59.316;18.092;2023-08-20T15:34:09;17.90;99.90
7427;DHT22;3755;59.316;18.092;2023-08-20T15:36:36;17.90;99.90
7427;DHT22;3755;59.316;18.092;2023-08-20T15:39:04;17.90;99.90
7427;DHT22;3755;59.316;18.092;2023-08-20T15:41:32;17.90;99.90
7427;DHT22;3755;59.316;18.092;2023-08-20T15:43:59;17.90;99.90
7427;DHT22;3755;59.316;18.092;2023-08-20T15:46:26;17.90;99.90
7427;DHT22;3755;59.316;18.092;2023-08-20T15:48:53;17.90;99.90
7427;DHT22;3755;59.316;18.092;2023-08-20T15:51:20;17.80;99.90
7427;DHT22;3755;59.316;18.092;2023-08-20T15:53:47;17.80;99.90